createdAt,value
2023-04-15T00:00:07.002Z,1032.03
2023-04-15T00:01:06.961Z,1031.95
2023-04-15T00:02:07.008Z,1031.95
2023-04-15T00:03:07.116Z,1031.95
2023-04-15T00:04:07.001Z,1031.96
2023-04-15T00:05:06.909Z,1031.98
2023-04-15T00:06:06.928Z,1031.93
2023-04-15T00:07:06.916Z,1031.93
2023-04-15T00:08:06.908Z,1031.89
2023-04-15T00:09:06.869Z,1031.87
2023-04-15T00:10:06.853Z,1031.82
2023-04-15T00:11:06.857Z,1031.77
2023-04-15T00:12:06.846Z,1031.73
2023-04-15T00:13:06.856Z,1031.70
2023-04-15T00:14:06.815Z,1031.68
2023-04-15T00:15:06.803Z,1031.66
2023-04-15T00:16:06.816Z,1031.70
2023-04-15T00:17:06.790Z,1031.71
2023-04-15T00:18:06.808Z,1031.71
2023-04-15T00:19:06.833Z,1031.73
2023-04-15T00:20:06.748Z,1031.73
2023-04-15T00:21:06.736Z,1031.71
2023-04-15T00:22:06.725Z,1031.64
2023-04-15T00:23:06.725Z,1031.59
2023-04-15T00:24:06.690Z,1031.58
2023-04-15T00:25:06.695Z,1031.56
2023-04-15T00:26:06.671Z,1031.58
2023-04-15T00:27:06.704Z,1031.55
2023-04-15T00:28:06.638Z,1031.55
2023-04-15T00:29:06.680Z,1031.50
2023-04-15T00:30:06.648Z,1031.41
2023-04-15T00:31:06.686Z,1031.41
2023-04-15T00:32:06.641Z,1031.41
2023-04-15T00:33:06.623Z,1031.52
2023-04-15T00:34:06.622Z,1031.64
2023-04-15T00:35:06.582Z,1031.77
2023-04-15T00:36:06.549Z,1031.87
2023-04-15T00:37:06.611Z,1031.95
2023-04-15T00:38:06.537Z,1031.93
2023-04-15T00:39:06.531Z,1031.75
2023-04-15T00:40:06.576Z,1031.62
2023-04-15T00:41:06.500Z,1031.62
2023-04-15T00:42:06.529Z,1031.55
2023-04-15T00:43:06.517Z,1031.43
2023-04-15T00:44:06.497Z,1031.43
2023-04-15T00:45:06.469Z,1031.41
2023-04-15T00:46:06.505Z,1031.44
2023-04-15T00:47:06.484Z,1031.38
2023-04-15T00:48:06.465Z,1031.34
2023-04-15T00:49:06.408Z,1031.33
2023-04-15T00:50:06.437Z,1031.35
2023-04-15T00:51:06.447Z,1031.35
2023-04-15T00:52:06.400Z,1031.33
2023-04-15T00:53:06.489Z,1031.32
2023-04-15T00:54:06.388Z,1031.28
2023-04-15T00:55:06.356Z,1031.24
2023-04-15T00:56:06.366Z,1031.22
2023-04-15T00:57:06.336Z,1031.21
2023-04-15T00:58:06.344Z,1031.16
2023-04-15T00:59:06.322Z,1031.10
2023-04-15T01:00:06.313Z,1031.06
2023-04-15T01:01:06.400Z,1031.05
2023-04-15T01:02:06.451Z,1031.02
2023-04-15T01:03:06.415Z,1030.99
2023-04-15T01:04:06.371Z,1031.01
2023-04-15T01:05:06.291Z,1031.00
2023-04-15T01:06:06.239Z,1030.86
2023-04-15T01:07:06.243Z,1030.81
2023-04-15T01:08:06.235Z,1030.80
2023-04-15T01:09:06.246Z,1030.72
2023-04-15T01:10:06.206Z,1030.72
2023-04-15T01:11:06.180Z,1030.63
2023-04-15T01:12:06.155Z,1030.56
2023-04-15T01:13:06.192Z,1030.56
2023-04-15T01:14:06.155Z,1030.51
2023-04-15T01:15:06.148Z,1030.43
2023-04-15T01:16:06.152Z,1030.32
2023-04-15T01:17:06.097Z,1030.29
2023-04-15T01:18:06.100Z,1030.26
2023-04-15T01:19:06.088Z,1030.25
2023-04-15T01:20:06.069Z,1030.24
2023-04-15T01:21:06.071Z,1030.18
2023-04-15T01:22:06.060Z,1030.17
2023-04-15T01:23:06.062Z,1030.16
2023-04-15T01:24:06.087Z,1030.14
2023-04-15T01:25:06.020Z,1030.13
2023-04-15T01:26:06.006Z,1030.07
2023-04-15T01:27:05.975Z,1029.99
2023-04-15T01:28:13.006Z,1029.95
2023-04-15T01:29:05.961Z,1029.97
2023-04-15T01:30:14.349Z,1030.00
2023-04-15T01:31:13.319Z,1029.99
2023-04-15T01:32:13.461Z,1029.98
2023-04-15T01:33:12.947Z,1029.96
2023-04-15T01:34:05.901Z,1029.90
2023-04-15T01:35:05.916Z,1029.92
2023-04-15T01:36:06.203Z,1029.82
2023-04-15T01:37:05.897Z,1029.75
2023-04-15T01:38:05.874Z,1029.77
2023-04-15T01:39:06.280Z,1029.76
2023-04-15T01:40:05.844Z,1029.78
2023-04-15T01:41:05.866Z,1029.76
2023-04-15T01:42:05.828Z,1029.73
2023-04-15T01:43:05.830Z,1029.77
2023-04-15T01:44:05.842Z,1029.73
2023-04-15T01:45:05.790Z,1029.74
2023-04-15T01:46:05.791Z,1029.69
2023-04-15T01:47:05.780Z,1029.70
2023-04-15T01:48:05.815Z,1029.70
2023-04-15T01:49:05.750Z,1029.70
2023-04-15T01:50:05.751Z,1029.71
2023-04-15T01:51:05.753Z,1029.75
2023-04-15T01:52:05.718Z,1029.67
2023-04-15T01:53:05.735Z,1029.69
2023-04-15T01:54:05.719Z,1029.64
2023-04-15T01:55:05.716Z,1029.56
2023-04-15T01:56:05.718Z,1029.52
2023-04-15T01:57:05.703Z,1029.53
2023-04-15T01:58:05.703Z,1029.52
2023-04-15T01:59:05.699Z,1029.49
2023-04-15T02:00:05.628Z,1029.52
2023-04-15T02:01:05.671Z,1029.54
2023-04-15T02:02:05.725Z,1029.53
2023-04-15T02:03:05.752Z,1029.53
2023-04-15T02:04:05.652Z,1029.53
2023-04-15T02:05:05.633Z,1029.52
2023-04-15T02:06:05.575Z,1029.47
2023-04-15T02:07:05.597Z,1029.38
2023-04-15T02:08:05.538Z,1029.34
2023-04-15T02:09:05.535Z,1029.26
2023-04-15T02:10:05.523Z,1029.24
2023-04-15T02:11:05.554Z,1029.21
2023-04-15T02:12:05.519Z,1029.23
2023-04-15T02:13:05.534Z,1029.26
2023-04-15T02:14:05.481Z,1029.27
2023-04-15T02:15:05.494Z,1029.31
2023-04-15T02:16:05.478Z,1029.37
2023-04-15T02:17:05.467Z,1029.41
2023-04-15T02:18:05.445Z,1029.40
2023-04-15T02:19:05.452Z,1029.34
2023-04-15T02:20:05.443Z,1029.31
2023-04-15T02:21:05.413Z,1029.32
2023-04-15T02:22:05.417Z,1029.37
2023-04-15T02:23:05.422Z,1029.37
2023-04-15T02:24:05.387Z,1029.37
2023-04-15T02:25:05.366Z,1029.33
2023-04-15T02:26:05.358Z,1029.31
2023-04-15T02:27:05.383Z,1029.33
2023-04-15T02:28:05.690Z,1029.25
2023-04-15T02:29:05.324Z,1029.23
2023-04-15T02:30:05.634Z,1028.99
2023-04-15T02:31:05.292Z,1028.96
2023-04-15T02:32:05.489Z,1028.90
2023-04-15T02:33:05.288Z,1028.89
2023-04-15T02:34:05.279Z,1028.85
2023-04-15T02:35:05.349Z,1028.86
2023-04-15T02:36:05.244Z,1028.84
2023-04-15T02:37:05.231Z,1028.86
2023-04-15T02:38:05.241Z,1028.84
2023-04-15T02:39:05.233Z,1028.84
2023-04-15T02:40:05.214Z,1028.82
2023-04-15T02:41:05.229Z,1028.82
2023-04-15T02:42:05.199Z,1028.80
2023-04-15T02:43:05.159Z,1028.84
2023-04-15T02:44:05.179Z,1028.85
2023-04-15T02:45:05.143Z,1028.86
2023-04-15T02:46:05.202Z,1028.91
2023-04-15T02:47:05.168Z,1028.90
2023-04-15T02:48:05.116Z,1028.95
2023-04-15T02:49:05.129Z,1028.98
2023-04-15T02:50:05.155Z,1029.01
2023-04-15T02:51:05.087Z,1029.22
2023-04-15T02:52:05.103Z,1029.23
2023-04-15T02:53:05.059Z,1029.23
2023-04-15T02:54:05.052Z,1029.24
2023-04-15T02:55:05.054Z,1029.23
2023-04-15T02:56:05.019Z,1029.22
2023-04-15T02:57:05.040Z,1029.02
2023-04-15T02:58:05.037Z,1028.98
2023-04-15T02:59:05.004Z,1028.95
2023-04-15T03:00:05.004Z,1028.93
2023-04-15T03:01:04.990Z,1028.92
2023-04-15T03:02:05.045Z,1028.94
2023-04-15T03:03:05.229Z,1028.96
2023-04-15T03:04:05.137Z,1028.97
2023-04-15T03:05:04.939Z,1028.98
2023-04-15T03:06:04.906Z,1029.01
2023-04-15T03:07:04.919Z,1029.03
2023-04-15T03:08:04.930Z,1029.01
2023-04-15T03:09:04.870Z,1028.96
2023-04-15T03:10:04.865Z,1028.96
2023-04-15T03:11:12.396Z,1028.90
2023-04-15T03:12:12.861Z,1028.85
2023-04-15T03:13:11.864Z,1028.87
2023-04-15T03:14:04.822Z,1028.86
2023-04-15T03:15:04.801Z,1028.83
2023-04-15T03:16:04.860Z,1028.83
2023-04-15T03:17:11.832Z,1028.84
2023-04-15T03:18:04.759Z,1028.82
2023-04-15T03:19:04.760Z,1028.79
2023-04-15T03:20:04.760Z,1028.80
2023-04-15T03:21:04.741Z,1028.75
2023-04-15T03:22:04.743Z,1028.75
2023-04-15T03:23:04.728Z,1028.70
2023-04-15T03:24:04.704Z,1028.66
2023-04-15T03:25:04.717Z,1028.63
2023-04-15T03:26:04.680Z,1028.64
2023-04-15T03:27:04.688Z,1028.62
2023-04-15T03:28:04.665Z,1028.60
2023-04-15T03:29:04.669Z,1028.58
2023-04-15T03:30:04.644Z,1028.54
2023-04-15T03:31:04.667Z,1028.54
2023-04-15T03:32:04.627Z,1028.56
2023-04-15T03:33:04.648Z,1028.56
2023-04-15T03:34:04.595Z,1028.61
2023-04-15T03:35:04.586Z,1028.62
2023-04-15T03:36:04.592Z,1028.63
2023-04-15T03:37:04.557Z,1028.60
2023-04-15T03:38:04.570Z,1028.64
2023-04-15T03:39:04.571Z,1028.63
2023-04-15T03:40:04.526Z,1028.62
2023-04-15T03:41:04.552Z,1028.58
2023-04-15T03:42:04.514Z,1028.57
2023-04-15T03:43:04.504Z,1028.54
2023-04-15T03:44:04.557Z,1028.36
2023-04-15T03:45:04.486Z,1028.53
2023-04-15T03:46:04.524Z,1028.55
2023-04-15T03:47:04.484Z,1028.54
2023-04-15T03:48:16.635Z,1028.53
2023-04-15T03:49:05.426Z,1028.33
2023-04-15T03:50:04.443Z,1028.31
2023-04-15T03:51:04.407Z,1028.27
2023-04-15T03:52:04.430Z,1028.22
2023-04-15T03:53:04.402Z,1028.23
2023-04-15T03:54:04.373Z,1028.23
2023-04-15T03:55:04.368Z,1028.22
2023-04-15T03:56:04.408Z,1028.20
2023-04-15T03:57:04.344Z,1028.19
2023-04-15T03:58:04.340Z,1028.22
2023-04-15T03:59:04.329Z,1028.19
2023-04-15T04:00:04.384Z,1028.19
2023-04-15T04:01:04.328Z,1028.14
2023-04-15T04:02:04.414Z,1028.11
2023-04-15T04:03:04.483Z,1028.10
2023-04-15T04:04:04.369Z,1028.08
2023-04-15T04:05:04.253Z,1028.04
2023-04-15T04:06:04.289Z,1028.01
2023-04-15T04:07:04.241Z,1028.02
2023-04-15T04:08:04.247Z,1028.07
2023-04-15T04:09:04.214Z,1028.11
2023-04-15T04:10:04.226Z,1028.09
2023-04-15T04:11:04.261Z,1028.05
2023-04-15T04:12:04.218Z,1027.94
2023-04-15T04:13:04.223Z,1027.67
2023-04-15T04:14:04.152Z,1027.63
2023-04-15T04:15:04.130Z,1027.59
2023-04-15T04:16:04.204Z,1027.64
2023-04-15T04:17:04.151Z,1027.60
2023-04-15T04:18:04.151Z,1027.60
2023-04-15T04:19:04.187Z,1027.60
2023-04-15T04:20:04.067Z,1027.59
2023-04-15T04:21:04.093Z,1027.62
2023-04-15T04:22:04.068Z,1027.64
2023-04-15T04:23:04.034Z,1027.66
2023-04-15T04:24:04.032Z,1027.68
2023-04-15T04:25:04.073Z,1027.63
2023-04-15T04:26:04.036Z,1027.65
2023-04-15T04:27:04.017Z,1027.63
2023-04-15T04:28:03.992Z,1027.63
2023-04-15T04:29:04.331Z,1027.61
2023-04-15T04:30:03.967Z,1027.59
2023-04-15T04:31:04.001Z,1027.54
2023-04-15T04:32:04.250Z,1027.49
2023-04-15T04:33:03.963Z,1027.46
2023-04-15T04:34:03.926Z,1027.45
2023-04-15T04:35:03.901Z,1027.44
2023-04-15T04:36:03.922Z,1027.44
2023-04-15T04:37:03.929Z,1027.46
2023-04-15T04:38:03.922Z,1027.48
2023-04-15T04:39:03.891Z,1027.52
2023-04-15T04:40:03.876Z,1027.52
2023-04-15T04:41:03.884Z,1027.51
2023-04-15T04:42:03.874Z,1027.52
2023-04-15T04:43:03.836Z,1027.49
2023-04-15T04:44:03.821Z,1027.48
2023-04-15T04:45:03.809Z,1027.50
2023-04-15T04:46:03.853Z,1027.50
2023-04-15T04:47:03.789Z,1027.50
2023-04-15T04:48:03.804Z,1027.52
2023-04-15T04:49:03.886Z,1027.51
2023-04-15T04:50:03.793Z,1027.50
2023-04-15T04:51:03.773Z,1027.45
2023-04-15T04:52:03.728Z,1027.25
2023-04-15T04:53:03.711Z,1027.24
2023-04-15T04:54:03.991Z,1027.23
2023-04-15T04:55:03.698Z,1027.22
2023-04-15T04:56:03.702Z,1027.20
2023-04-15T04:57:03.655Z,1027.23
2023-04-15T04:58:11.922Z,1027.22
2023-04-15T04:59:03.948Z,1027.20
2023-04-15T05:00:03.628Z,1027.21
2023-04-15T05:01:03.641Z,1027.22
2023-04-15T05:02:10.657Z,1027.18
2023-04-15T05:03:11.203Z,1027.16
2023-04-15T05:04:03.799Z,1027.15
2023-04-15T05:05:11.621Z,1027.16
2023-04-15T05:06:03.557Z,1027.18
2023-04-15T05:07:03.543Z,1027.26
2023-04-15T05:08:03.806Z,1027.24
2023-04-15T05:09:03.824Z,1027.19
2023-04-15T05:10:03.819Z,1027.18
2023-04-15T05:11:03.935Z,1027.11
2023-04-15T05:12:03.489Z,1027.12
2023-04-15T05:13:03.494Z,1027.10
2023-04-15T05:14:03.465Z,1027.07
2023-04-15T05:15:03.462Z,1027.05
2023-04-15T05:16:03.670Z,1027.07
2023-04-15T05:17:03.447Z,1027.09
2023-04-15T05:18:03.494Z,1027.18
2023-04-15T05:19:03.557Z,1027.26
2023-04-15T05:20:03.438Z,1027.49
2023-04-15T05:21:03.408Z,1027.47
2023-04-15T05:22:03.404Z,1027.50
2023-04-15T05:23:03.379Z,1027.52
2023-04-15T05:24:03.363Z,1027.57
2023-04-15T05:25:03.698Z,1027.59
2023-04-15T05:26:06.164Z,1027.59
2023-04-15T05:27:03.711Z,1027.66
2023-04-15T05:28:03.348Z,1027.71
2023-04-15T05:29:03.464Z,1027.96
2023-04-15T05:30:03.292Z,1028.09
2023-04-15T05:31:03.336Z,1028.17
2023-04-15T05:32:03.292Z,1028.27
2023-04-15T05:33:03.284Z,1028.33
2023-04-15T05:34:03.282Z,1028.58
2023-04-15T05:35:03.525Z,1028.69
2023-04-15T05:36:03.234Z,1028.77
2023-04-15T05:37:03.204Z,1028.85
2023-04-15T05:38:03.207Z,1028.91
2023-04-15T05:39:03.410Z,1029.02
2023-04-15T05:40:03.189Z,1029.39
2023-04-15T05:41:03.215Z,1029.55
2023-04-15T05:42:03.173Z,1029.66
2023-04-15T05:43:03.183Z,1029.69
2023-04-15T05:44:03.131Z,1029.74
2023-04-15T05:45:03.162Z,1029.84
2023-04-15T05:46:03.125Z,1029.94
2023-04-15T05:47:03.105Z,1030.04
2023-04-15T05:48:03.082Z,1030.07
2023-04-15T05:49:03.284Z,1030.13
2023-04-15T05:50:03.181Z,1030.19
2023-04-15T05:51:03.080Z,1030.22
2023-04-15T05:52:03.036Z,1030.32
2023-04-15T05:53:03.033Z,1030.39
2023-04-15T05:54:03.010Z,1030.46
2023-04-15T05:55:03.036Z,1030.55
2023-04-15T05:56:02.994Z,1030.66
2023-04-15T05:57:03.016Z,1030.80
2023-04-15T05:58:02.963Z,1030.91
2023-04-15T05:59:03.085Z,1030.99
2023-04-15T06:00:02.972Z,1031.08
2023-04-15T06:01:02.960Z,1031.21
2023-04-15T06:02:02.994Z,1031.30
2023-04-15T06:03:02.945Z,1031.45
2023-04-15T06:04:02.980Z,1031.49
2023-04-15T06:05:03.037Z,1031.58
2023-04-15T06:06:03.133Z,1031.64
2023-04-15T06:07:02.906Z,1031.76
2023-04-15T06:08:02.883Z,1031.86
2023-04-15T06:09:02.990Z,1032.03
2023-04-15T06:10:02.855Z,1032.16
2023-04-15T06:11:02.906Z,1032.26
2023-04-15T06:12:02.816Z,1032.35
2023-04-15T06:13:02.806Z,1032.48
2023-04-15T06:14:02.829Z,1032.56
2023-04-15T06:15:02.805Z,1032.58
2023-04-15T06:16:02.818Z,1032.75
2023-04-15T06:17:02.820Z,1032.77
2023-04-15T06:18:02.797Z,1032.80
2023-04-15T06:19:02.974Z,1032.82
2023-04-15T06:20:02.764Z,1032.99
2023-04-15T06:21:02.766Z,1033.01
2023-04-15T06:22:02.713Z,1033.02
2023-04-15T06:23:02.716Z,1033.05
2023-04-15T06:24:02.681Z,1033.04
2023-04-15T06:25:02.669Z,1033.06
2023-04-15T06:26:02.723Z,1033.24
2023-04-15T06:27:02.670Z,1033.26
2023-04-15T06:28:02.638Z,1033.25
2023-04-15T06:29:02.925Z,1033.27
2023-04-15T06:30:02.621Z,1033.29
2023-04-15T06:31:02.638Z,1033.30
2023-04-15T06:32:02.626Z,1033.28
2023-04-15T06:33:02.616Z,1033.30
2023-04-15T06:34:02.570Z,1033.47
2023-04-15T06:35:02.583Z,1033.48
2023-04-15T06:36:02.564Z,1033.48
2023-04-15T06:37:04.476Z,1033.30
2023-04-15T06:38:02.528Z,1033.30
2023-04-15T06:39:02.779Z,1033.48
2023-04-15T06:40:02.562Z,1033.51
2023-04-15T06:41:02.492Z,1033.55
2023-04-15T06:42:09.500Z,1033.73
2023-04-15T06:43:09.511Z,1033.76
2023-04-15T06:44:09.558Z,1033.80
2023-04-15T06:45:09.457Z,1034.01
2023-04-15T06:46:09.510Z,1034.22
2023-04-15T06:47:09.447Z,1034.25
2023-04-15T06:48:09.436Z,1034.24
2023-04-15T06:49:02.602Z,1034.30
2023-04-15T06:50:02.473Z,1034.49
2023-04-15T06:51:02.362Z,1034.52
2023-04-15T06:52:02.386Z,1034.58
2023-04-15T06:53:02.385Z,1034.79
2023-04-15T06:54:02.368Z,1034.81
2023-04-15T06:55:02.368Z,1035.05
2023-04-15T06:56:02.367Z,1035.10
2023-04-15T06:57:02.324Z,1035.10
2023-04-15T06:58:02.323Z,1035.32
2023-04-15T06:59:02.482Z,1035.15
2023-04-15T07:00:02.282Z,1035.32
2023-04-15T07:01:02.379Z,1035.37
2023-04-15T07:02:02.309Z,1035.41
2023-04-15T07:03:02.320Z,1035.39
2023-04-15T07:04:02.249Z,1035.63
2023-04-15T07:05:02.233Z,1035.65
2023-04-15T07:06:02.254Z,1035.74
2023-04-15T07:07:02.206Z,1035.98
2023-04-15T07:08:02.197Z,1036.21
2023-04-15T07:09:02.378Z,1036.23
2023-04-15T07:10:02.209Z,1036.25
2023-04-15T07:11:02.158Z,1036.30
2023-04-15T07:12:02.154Z,1036.55
2023-04-15T07:13:02.213Z,1036.63
2023-04-15T07:14:02.161Z,1036.87
2023-04-15T07:15:02.125Z,1036.92
2023-04-15T07:16:02.110Z,1037.13
2023-04-15T07:17:02.224Z,1037.17
2023-04-15T07:18:02.132Z,1037.23
2023-04-15T07:19:04.865Z,1037.34
2023-04-15T07:20:02.124Z,1037.41
2023-04-15T07:21:02.823Z,1037.34
2023-04-15T07:22:02.048Z,1037.21
2023-04-15T07:23:02.070Z,1036.26
2023-04-15T07:24:02.306Z,1035.72
2023-04-15T07:25:02.060Z,1036.40
2023-04-15T07:26:01.995Z,1036.98
2023-04-15T07:27:02.004Z,1037.60
2023-04-15T07:28:02.035Z,1037.82
2023-04-15T07:29:02.174Z,1037.80
2023-04-15T07:30:02.029Z,1037.78
2023-04-15T07:31:01.998Z,1035.38
2023-04-15T07:32:01.975Z,1034.81
2023-04-15T07:33:02.031Z,1037.15
2023-04-15T07:34:01.931Z,1035.93
2023-04-15T07:35:01.954Z,1034.30
2023-04-15T07:36:01.886Z,1033.81
2023-04-15T07:37:01.895Z,1032.99
2023-04-15T07:38:01.908Z,1032.18
2023-04-15T07:39:02.013Z,1032.82
2023-04-15T07:40:01.853Z,1033.73
2023-04-15T07:41:01.930Z,1033.24
2023-04-15T07:42:01.817Z,1033.25
2023-04-15T07:43:01.799Z,1032.11
2023-04-15T07:44:01.784Z,1032.13
2023-04-15T07:45:01.815Z,1032.03
2023-04-15T07:46:01.788Z,1029.82
2023-04-15T07:47:01.754Z,1033.39
2023-04-15T07:48:01.819Z,1034.83
2023-04-15T07:49:02.097Z,1034.02
2023-04-15T07:50:01.768Z,1031.99
2023-04-15T07:51:01.734Z,1032.55
2023-04-15T07:52:01.715Z,1034.07
2023-04-15T07:53:01.696Z,1033.71
2023-04-15T07:54:01.815Z,1033.98
2023-04-15T07:55:01.718Z,1035.04
2023-04-15T07:56:01.711Z,1035.61
2023-04-15T07:57:06.566Z,1035.22
2023-04-15T07:58:02.853Z,1036.35
2023-04-15T07:59:01.842Z,1036.01
2023-04-15T08:00:02.348Z,1035.75
2023-04-15T08:01:01.615Z,1036.38
2023-04-15T08:02:01.703Z,1036.41
2023-04-15T08:03:01.905Z,1035.40
2023-04-15T08:04:01.666Z,1035.56
2023-04-15T08:05:01.611Z,1036.63
2023-04-15T08:06:01.539Z,1036.47
2023-04-15T08:07:01.565Z,1036.11
2023-04-15T08:08:01.541Z,1036.91
2023-04-15T08:09:02.479Z,1036.75
2023-04-15T08:10:01.516Z,1037.36
2023-04-15T08:11:01.511Z,1037.63
2023-04-15T08:12:01.503Z,1038.44
2023-04-15T08:13:01.541Z,1039.03
2023-04-15T08:14:01.448Z,1039.59
2023-04-15T08:15:01.527Z,1039.59
2023-04-15T08:16:01.476Z,1038.85
2023-04-15T08:17:01.596Z,1039.29
2023-04-15T08:18:01.404Z,1036.80
2023-04-15T08:19:01.996Z,1033.50
2023-04-15T08:20:01.746Z,1033.62
2023-04-15T08:21:01.399Z,1033.73
2023-04-15T08:22:01.404Z,1034.91
2023-04-15T08:23:01.340Z,1033.61
2023-04-15T08:24:01.362Z,1033.21
2023-04-15T08:25:01.356Z,1033.42
2023-04-15T08:26:03.104Z,1032.82
2023-04-15T08:27:01.336Z,1032.86
2023-04-15T08:28:01.296Z,1033.98
2023-04-15T08:29:01.532Z,1033.41
2023-04-15T08:30:03.384Z,1033.90
2023-04-15T08:31:08.312Z,1035.59
2023-04-15T08:32:08.256Z,1035.27
2023-04-15T08:33:09.239Z,1035.75
2023-04-15T08:34:10.989Z,1035.14
2023-04-15T08:35:10.044Z,1035.47
2023-04-15T08:36:01.553Z,1034.89
2023-04-15T08:37:01.189Z,1034.26
2023-04-15T08:38:01.446Z,1034.53
2023-04-15T08:39:01.536Z,1035.44
2023-04-15T08:40:01.178Z,1035.60
2023-04-15T08:41:03.886Z,1035.82
2023-04-15T08:42:01.127Z,1036.08
2023-04-15T08:43:01.122Z,1034.91
2023-04-15T08:44:01.136Z,1034.13
2023-04-15T08:45:01.151Z,1034.66
2023-04-15T08:46:01.098Z,1036.48
2023-04-15T08:47:01.194Z,1036.72
2023-04-15T08:48:01.106Z,1036.41
2023-04-15T08:49:01.354Z,1036.18
2023-04-15T08:50:01.059Z,1035.63
2023-04-15T08:51:01.065Z,1035.36
2023-04-15T08:52:01.018Z,1035.70
2023-04-15T08:53:01.032Z,1035.89
2023-04-15T08:54:01.011Z,1036.55
2023-04-15T08:55:00.973Z,1036.43
2023-04-15T08:56:01.007Z,1036.27
2023-04-15T08:57:00.949Z,1036.21
2023-04-15T08:58:00.998Z,1036.32
2023-04-15T08:59:01.188Z,1037.52
2023-04-15T09:00:01.836Z,1038.00
2023-04-15T09:01:00.950Z,1037.78
2023-04-15T09:02:00.963Z,1037.87
2023-04-15T09:03:00.945Z,1037.68
2023-04-15T09:04:00.978Z,1036.27
2023-04-15T09:05:00.877Z,1036.09
2023-04-15T09:06:00.935Z,1036.29
2023-04-15T09:07:02.818Z,1036.23
2023-04-15T09:08:00.942Z,1033.88
2023-04-15T09:09:01.061Z,1034.08
2023-04-15T09:10:00.855Z,1034.17
2023-04-15T09:11:00.800Z,1033.76
2023-04-15T09:12:00.811Z,1034.83
2023-04-15T09:13:00.788Z,1034.78
2023-04-15T09:14:00.832Z,1034.87
2023-04-15T09:15:00.767Z,1033.81
2023-04-15T09:16:01.580Z,1033.24
2023-04-15T09:17:03.604Z,1032.71
2023-04-15T09:18:00.831Z,1031.54
2023-04-15T09:19:00.998Z,1030.49
2023-04-15T09:20:00.728Z,1030.26
2023-04-15T09:21:00.713Z,1027.79
2023-04-15T09:22:00.680Z,1026.53
2023-04-15T09:23:00.703Z,1028.00
2023-04-15T09:24:00.920Z,1028.27
2023-04-15T09:25:00.689Z,1026.93
2023-04-15T09:26:00.637Z,1024.88
2023-04-15T09:27:00.633Z,1022.67
2023-04-15T09:28:00.630Z,1017.14
2023-04-15T09:29:00.617Z,1013.77
2023-04-15T09:30:00.695Z,1014.78
2023-04-15T09:31:00.642Z,1014.83
2023-04-15T09:32:00.664Z,1018.26
2023-04-15T09:33:00.597Z,1022.88
2023-04-15T09:34:00.856Z,1024.64
2023-04-15T09:35:00.550Z,1025.92
2023-04-15T09:36:00.508Z,1026.68
2023-04-15T09:37:00.669Z,1027.96
2023-04-15T09:38:00.503Z,1029.24
2023-04-15T09:39:00.486Z,1030.35
2023-04-15T09:40:00.625Z,1029.51
2023-04-15T09:41:00.496Z,1030.76
2023-04-15T09:42:00.495Z,1028.82
2023-04-15T09:43:00.489Z,1030.39
2023-04-15T09:44:00.739Z,1024.22
2023-04-15T09:45:00.434Z,1025.56
2023-04-15T09:46:00.497Z,1022.84
2023-04-15T09:47:00.401Z,1016.99
2023-04-15T09:48:00.718Z,1017.08
2023-04-15T09:49:00.436Z,1016.56
2023-04-15T09:50:00.538Z,1016.79
2023-04-15T09:51:00.374Z,1014.07
2023-04-15T09:52:05.729Z,1011.43
2023-04-15T09:53:01.325Z,1007.15
2023-04-15T09:54:00.450Z,1008.07
2023-04-15T09:55:00.435Z,1012.88
2023-04-15T09:56:00.275Z,1024.27
2023-04-15T09:57:00.294Z,1028.84
2023-04-15T09:58:00.323Z,1029.56
2023-04-15T09:59:00.267Z,1029.62
2023-04-15T10:00:00.322Z,1015.48
2023-04-15T10:01:00.330Z,1029.47
2023-04-15T10:02:00.294Z,1026.43
2023-04-15T10:03:00.395Z,1024.57
2023-04-15T10:04:00.380Z,1020.51
2023-04-15T10:05:00.199Z,1016.81
2023-04-15T10:06:00.251Z,1013.65
2023-04-15T10:07:00.196Z,1008.47
2023-04-15T10:08:00.162Z,1007.45
2023-04-15T10:09:08.174Z,1005.98
2023-04-15T10:10:09.424Z,995.13
2023-04-15T10:11:00.146Z,997.95
2023-04-15T10:12:00.104Z,998.36
2023-04-15T10:13:00.106Z,993.98
2023-04-15T10:14:00.648Z,976.80
2023-04-15T10:15:00.069Z,991.64
2023-04-15T10:16:00.094Z,994.52
2023-04-15T10:17:07.075Z,986.76
2023-04-15T10:18:07.082Z,1002.70
2023-04-15T10:19:07.369Z,1003.92
2023-04-15T10:20:00.046Z,1007.98
2023-04-15T10:21:08.522Z,1007.46
2023-04-15T10:22:07.345Z,1012.20
2023-04-15T10:23:09.528Z,1013.47
2023-04-15T10:24:00.330Z,1014.25
2023-04-15T10:24:59.991Z,1013.35
2023-04-15T10:26:00.961Z,1009.16
2023-04-15T10:26:59.930Z,1010.03
2023-04-15T10:27:59.901Z,1011.77
2023-04-15T10:29:00.281Z,1013.83
2023-04-15T10:30:00.779Z,1013.58
2023-04-15T10:30:59.972Z,1014.69
2023-04-15T10:31:59.901Z,1015.01
2023-04-15T10:32:59.882Z,1015.21
2023-04-15T10:34:00.072Z,1012.39
2023-04-15T10:34:59.830Z,1011.43
2023-04-15T10:35:59.885Z,1012.52
2023-04-15T10:36:59.851Z,1012.85
2023-04-15T10:37:59.816Z,1008.84
2023-04-15T10:38:59.807Z,996.13
2023-04-15T10:39:59.802Z,1002.89
2023-04-15T10:40:59.787Z,1009.12
2023-04-15T10:42:00.141Z,1013.34
2023-04-15T10:42:59.767Z,1011.82
2023-04-15T10:43:59.877Z,1012.60
2023-04-15T10:45:00.138Z,1011.12
2023-04-15T10:45:59.721Z,1014.60
2023-04-15T10:46:59.792Z,1018.78
2023-04-15T10:48:01.030Z,1021.66
2023-04-15T10:48:59.740Z,1027.31
2023-04-15T10:49:59.694Z,1028.57
2023-04-15T10:50:59.677Z,1028.67
2023-04-15T10:51:59.700Z,1029.66
2023-04-15T10:52:59.641Z,1029.93
2023-04-15T10:53:59.658Z,1029.41
2023-04-15T10:55:00.371Z,1029.59
2023-04-15T10:55:59.605Z,1029.59
2023-04-15T10:56:59.623Z,1027.89
2023-04-15T10:57:59.580Z,1027.39
2023-04-15T10:58:59.567Z,1027.67
2023-04-15T10:59:59.562Z,1027.55
2023-04-15T11:00:59.540Z,1023.11
2023-04-15T11:01:59.601Z,1014.64
2023-04-15T11:02:59.822Z,1020.60
2023-04-15T11:04:04.824Z,1013.09
2023-04-15T11:04:59.750Z,1011.12
2023-04-15T11:05:59.489Z,1016.48
2023-04-15T11:06:59.515Z,1012.91
2023-04-15T11:07:59.480Z,1023.60
2023-04-15T11:09:03.463Z,1029.67
2023-04-15T11:09:59.454Z,1029.20
2023-04-15T11:10:59.468Z,1030.30
2023-04-15T11:11:59.487Z,1030.83
2023-04-15T11:12:59.458Z,1033.85
2023-04-15T11:13:59.403Z,1036.72
2023-04-15T11:14:59.683Z,1032.00
2023-04-15T11:15:59.394Z,1024.86
2023-04-15T11:16:59.369Z,1021.14
2023-04-15T11:17:59.459Z,1024.39
2023-04-15T11:18:59.362Z,1024.63
2023-04-15T11:19:59.329Z,1024.44
2023-04-15T11:20:59.322Z,1027.45
2023-04-15T11:21:59.309Z,1027.98
2023-04-15T11:23:08.181Z,1030.99
2023-04-15T11:24:02.148Z,1032.33
2023-04-15T11:24:59.326Z,1033.16
2023-04-15T11:25:59.277Z,1032.75
2023-04-15T11:26:59.259Z,1032.37
2023-04-15T11:27:59.234Z,1032.72
2023-04-15T11:28:59.218Z,1031.97
2023-04-15T11:29:59.263Z,1031.65
2023-04-15T11:30:59.211Z,1033.71
2023-04-15T11:31:59.334Z,1033.77
2023-04-15T11:32:59.655Z,1032.22
2023-04-15T11:34:04.115Z,1030.63
2023-04-15T11:35:02.050Z,1030.85
2023-04-15T11:35:59.671Z,1025.81
2023-04-15T11:36:59.159Z,1022.01
2023-04-15T11:37:59.147Z,1023.63
2023-04-15T11:38:59.400Z,1025.06
2023-04-15T11:39:59.106Z,1026.34
2023-04-15T11:40:59.083Z,1027.09
2023-04-15T11:41:59.075Z,1024.29
2023-04-15T11:42:59.682Z,1023.43
2023-04-15T11:44:02.234Z,1022.03
2023-04-15T11:45:00.158Z,1019.95
2023-04-15T11:45:59.156Z,1019.89
2023-04-15T11:46:59.824Z,1022.87
2023-04-15T11:47:59.072Z,1026.34
2023-04-15T11:48:58.987Z,1029.46
2023-04-15T11:49:59.011Z,1028.43
2023-04-15T11:50:58.996Z,1026.03
2023-04-15T11:51:58.966Z,1016.44
2023-04-15T11:52:58.946Z,1001.23
2023-04-15T11:53:58.951Z,991.11
2023-04-15T11:54:58.946Z,991.43
2023-04-15T11:55:58.937Z,997.99
2023-04-15T11:56:58.909Z,1003.90
2023-04-15T11:57:58.895Z,1006.95
2023-04-15T11:58:58.883Z,1011.61
2023-04-15T11:59:58.888Z,1021.65
2023-04-15T12:00:58.881Z,1030.68
2023-04-15T12:01:58.919Z,1035.21
2023-04-15T12:02:58.946Z,1035.74
2023-04-15T12:03:59.007Z,1036.33
2023-04-15T12:04:58.848Z,1039.91
2023-04-15T12:05:58.801Z,1042.53